createdAt,value
2022-10-17T00:00:43.053Z,4.57
2022-10-17T00:04:44.045Z,4.50
2022-10-17T00:08:45.771Z,4.90
2022-10-17T00:12:47.244Z,4.33
2022-10-17T00:16:48.197Z,4.20
2022-10-17T00:20:49.455Z,4.10
2022-10-17T00:24:50.516Z,4.10
2022-10-17T00:28:52.641Z,4.77
2022-10-17T00:32:53.702Z,4.40
2022-10-17T00:36:54.736Z,4.57
2022-10-17T00:40:56.595Z,4.60
2022-10-17T00:45:03.997Z,4.70
2022-10-17T00:49:10.466Z,4.20
2022-10-17T00:53:11.722Z,4.27
2022-10-17T00:57:13.954Z,4.17
2022-10-17T01:01:15.216Z,4.33
2022-10-17T01:05:18.183Z,5.17
2022-10-17T01:09:19.635Z,4.73
2022-10-17T01:13:27.337Z,4.20
2022-10-17T01:17:47.300Z,5.07
2022-10-17T01:21:58.273Z,3.97
2022-10-17T01:26:29.041Z,5.07
2022-10-17T01:30:49.111Z,4.83
2022-10-17T01:34:56.826Z,4.63
2022-10-17T01:39:20.096Z,4.57
2022-10-17T01:43:27.629Z,4.30
2022-10-17T01:47:31.926Z,4.30
2022-10-17T01:51:39.406Z,5.17
2022-10-17T01:55:44.061Z,5.23
2022-10-17T01:59:48.221Z,4.27
2022-10-17T02:03:51.151Z,4.77
2022-10-17T02:07:52.113Z,3.90
2022-10-17T02:12:06.258Z,5.07
2022-10-17T02:16:37.019Z,5.37
2022-10-17T02:21:02.921Z,5.57
2022-10-17T02:25:22.986Z,5.43
2022-10-17T02:29:27.754Z,5.30
2022-10-17T02:33:47.737Z,4.57
2022-10-17T02:37:50.988Z,5.00
2022-10-17T02:41:54.425Z,4.60
2022-10-17T02:45:56.829Z,4.70
2022-10-17T02:49:58.062Z,4.93
2022-10-17T02:54:02.934Z,4.83
2022-10-17T02:58:10.327Z,5.33
2022-10-17T03:02:11.774Z,4.33
2022-10-17T03:06:12.811Z,3.90
2022-10-17T03:10:13.923Z,4.70
2022-10-17T03:14:14.879Z,4.60
2022-10-17T03:18:16.050Z,5.37
2022-10-17T03:22:16.996Z,5.37
2022-10-17T03:26:17.997Z,5.53
2022-10-17T03:30:19.689Z,4.67
2022-10-17T03:34:21.196Z,4.60
2022-10-17T03:38:22.167Z,5.10
2022-10-17T03:42:23.174Z,4.63
2022-10-17T03:46:24.240Z,4.93
2022-10-17T03:50:25.436Z,4.60
2022-10-17T03:54:26.289Z,4.43
2022-10-17T03:58:28.138Z,5.20
2022-10-17T04:02:28.991Z,5.47
2022-10-17T04:06:29.842Z,5.33
2022-10-17T04:10:30.717Z,5.33
2022-10-17T04:14:31.736Z,4.63
2022-10-17T04:18:33.291Z,5.33
2022-10-17T04:22:34.232Z,4.83
2022-10-17T04:26:35.179Z,5.63
2022-10-17T04:30:36.451Z,5.50
2022-10-17T04:34:37.378Z,6.93
2022-10-17T04:38:38.885Z,5.43
2022-10-17T04:42:40.017Z,6.20
2022-10-17T04:46:40.970Z,5.60
2022-10-17T04:50:43.943Z,5.63
2022-10-17T04:55:05.459Z,5.55
2022-10-17T04:59:06.414Z,6.47
2022-10-17T05:03:07.464Z,5.87
2022-10-17T05:07:08.555Z,5.80
2022-10-17T05:11:24.096Z,5.77
2022-10-17T05:15:25.344Z,5.65
2022-10-17T05:19:26.415Z,6.60
2022-10-17T05:23:29.939Z,6.17
2022-10-17T05:27:31.654Z,6.97
2022-10-17T05:31:32.655Z,6.30
2022-10-17T05:35:33.786Z,6.73
2022-10-17T05:39:35.159Z,6.70
2022-10-17T05:43:36.243Z,6.90
2022-10-17T05:47:37.292Z,7.33
2022-10-17T05:55:39.259Z,6.10
2022-10-17T05:59:40.194Z,6.63
2022-10-17T06:03:41.200Z,7.40
2022-10-17T06:07:42.615Z,6.67
2022-10-17T06:11:43.950Z,5.57
2022-10-17T06:15:45.657Z,5.90
2022-10-17T06:19:47.100Z,5.77
2022-10-17T06:23:48.101Z,5.60
2022-10-17T06:27:49.174Z,5.43
2022-10-17T06:31:51.179Z,5.50
2022-10-17T06:35:53.475Z,6.23
2022-10-17T06:39:54.605Z,5.50
2022-10-17T06:43:56.432Z,5.43
2022-10-17T06:47:57.503Z,4.73
2022-10-17T06:51:58.584Z,5.10
2022-10-17T06:56:03.861Z,4.87
2022-10-17T07:00:05.926Z,5.57
2022-10-17T07:04:07.039Z,4.63
2022-10-17T07:08:09.287Z,4.67
2022-10-17T07:12:12.170Z,4.90
2022-10-17T07:16:15.230Z,5.03
2022-10-17T07:20:16.694Z,5.93
2022-10-17T07:24:17.669Z,5.37
2022-10-17T07:28:18.874Z,4.50
2022-10-17T07:32:19.875Z,4.37
2022-10-17T07:36:20.985Z,5.17
2022-10-17T07:40:22.125Z,5.07
2022-10-17T07:44:23.115Z,5.13
2022-10-17T07:48:24.843Z,5.33
2022-10-17T07:52:25.884Z,5.60
2022-10-17T07:56:28.962Z,6.60
2022-10-17T08:00:29.915Z,4.73
2022-10-17T08:04:31.006Z,6.53
2022-10-17T08:08:32.535Z,5.13
2022-10-17T08:12:33.995Z,4.40
2022-10-17T08:16:35.506Z,5.40
2022-10-17T08:20:36.761Z,5.33
2022-10-17T08:24:37.871Z,5.27
2022-10-17T08:28:40.125Z,5.10
2022-10-17T08:32:43.049Z,6.30
2022-10-17T08:36:44.218Z,5.80
2022-10-17T08:40:48.400Z,4.90
2022-10-17T08:45:14.940Z,5.33
2022-10-17T08:49:25.538Z,6.40
2022-10-17T08:53:46.740Z,5.43
2022-10-17T08:57:48.435Z,5.57
2022-10-17T09:01:59.502Z,5.23
2022-10-17T09:06:26.113Z,5.27
2022-10-17T09:10:43.138Z,4.83
2022-10-17T09:15:07.815Z,4.40
2022-10-17T09:19:25.237Z,4.50
2022-10-17T09:23:32.515Z,5.20
2022-10-17T09:27:39.910Z,5.53
2022-10-17T09:31:44.810Z,4.83
2022-10-17T09:35:47.285Z,4.90
2022-10-17T09:39:48.464Z,5.27
2022-10-17T09:43:58.641Z,3.93
2022-10-17T09:48:21.761Z,4.60
2022-10-17T09:52:35.514Z,4.53
2022-10-17T09:57:05.751Z,4.40
2022-10-17T10:01:24.218Z,4.27
2022-10-17T10:05:26.028Z,6.23
2022-10-17T10:09:30.255Z,3.77
2022-10-17T10:13:33.824Z,4.40
2022-10-17T10:17:43.730Z,4.07
2022-10-17T10:21:51.461Z,4.80
2022-10-17T10:25:58.553Z,4.60
2022-10-17T10:30:00.189Z,4.40
2022-10-17T10:34:06.643Z,4.30
2022-10-17T10:38:10.936Z,4.80
2022-10-17T10:42:18.815Z,4.30
2022-10-17T10:46:26.894Z,3.53
2022-10-17T10:50:46.055Z,4.77
2022-10-17T10:54:57.050Z,3.87
2022-10-17T10:59:01.924Z,4.03
2022-10-17T11:03:18.735Z,3.50
2022-10-17T11:07:44.697Z,4.23
2022-10-17T11:11:49.523Z,3.03
2022-10-17T11:15:59.812Z,3.10
2022-10-17T11:20:20.008Z,3.40
2022-10-17T11:24:40.143Z,2.20
2022-10-17T11:28:41.579Z,3.10
2022-10-17T11:32:46.444Z,2.77
2022-10-17T11:36:51.391Z,3.60
2022-10-17T11:40:56.256Z,3.57
2022-10-17T11:45:04.538Z,3.30
2022-10-17T11:49:20.651Z,3.83
2022-10-17T11:53:31.164Z,4.27
2022-10-17T11:57:36.765Z,3.50
2022-10-17T12:01:44.989Z,3.10
2022-10-17T12:05:49.975Z,4.07
2022-10-17T12:10:01.430Z,3.27
2022-10-17T12:14:05.783Z,3.53
2022-10-17T12:18:10.532Z,3.27
2022-10-17T12:22:21.217Z,3.93
2022-10-17T12:26:28.209Z,3.53
2022-10-17T12:30:29.559Z,3.33
2022-10-17T12:34:31.125Z,2.70
2022-10-17T12:38:32.653Z,3.30
2022-10-17T12:42:43.785Z,3.20
2022-10-17T12:46:50.841Z,3.30
2022-10-17T12:55:15.633Z,3.77
2022-10-17T12:59:23.399Z,3.27
2022-10-17T13:03:33.122Z,3.47
2022-10-17T13:07:36.897Z,3.83
2022-10-17T13:11:39.404Z,3.57
2022-10-17T13:15:46.824Z,3.93
2022-10-17T13:19:48.413Z,4.27
2022-10-17T13:23:51.854Z,3.40
2022-10-17T13:28:06.654Z,3.77
2022-10-17T13:32:11.360Z,3.60
2022-10-17T13:36:16.847Z,3.93
2022-10-17T13:40:44.059Z,3.57
2022-10-17T13:44:28.306Z,3.80
2022-10-17T13:48:32.426Z,3.30
2022-10-17T13:52:34.402Z,3.40
2022-10-17T13:56:36.528Z,4.30
2022-10-17T14:00:37.973Z,3.33
2022-10-17T14:05:04.124Z,4.27
2022-10-17T14:09:04.940Z,4.40
2022-10-17T14:13:07.944Z,3.73
2022-10-17T14:17:22.053Z,3.30
2022-10-17T14:21:43.817Z,4.10
2022-10-17T14:25:37.300Z,4.60
2022-10-17T14:29:53.231Z,4.00
2022-10-17T14:33:55.694Z,3.73
2022-10-17T14:38:01.568Z,3.63
2022-10-17T14:42:04.749Z,4.43
2022-10-17T14:46:06.757Z,4.27
2022-10-17T14:50:12.355Z,3.60
2022-10-17T14:54:27.887Z,3.67
2022-10-17T14:58:32.394Z,3.73
2022-10-17T15:02:35.265Z,3.80
2022-10-17T15:06:36.711Z,5.03
2022-10-17T15:10:42.926Z,4.53
2022-10-17T15:14:49.119Z,4.90
2022-10-17T15:18:51.619Z,5.43
2022-10-17T15:22:54.398Z,4.17
2022-10-17T15:26:56.259Z,3.37
2022-10-17T15:30:59.957Z,4.90
2022-10-17T15:35:03.047Z,3.90
2022-10-17T15:39:06.749Z,4.33
2022-10-17T15:43:10.047Z,3.57
2022-10-17T15:47:21.497Z,3.90
2022-10-17T15:51:24.233Z,5.43
2022-10-17T15:55:26.444Z,5.00
2022-10-17T15:59:31.434Z,4.80
2022-10-17T16:03:33.707Z,5.37
2022-10-17T16:07:37.886Z,5.90
2022-10-17T16:11:42.967Z,5.73
2022-10-17T16:15:46.626Z,6.70
2022-10-17T16:19:50.423Z,6.33
2022-10-17T16:23:53.598Z,5.63
2022-10-17T16:27:58.162Z,6.10
2022-10-17T16:32:00.422Z,6.07
2022-10-17T16:36:02.522Z,5.77
2022-10-17T16:40:06.253Z,6.17
2022-10-17T16:44:12.501Z,5.97
2022-10-17T16:48:13.713Z,5.20
2022-10-17T16:52:14.790Z,6.67
2022-10-17T16:56:18.263Z,7.00
2022-10-17T17:00:19.816Z,6.20
2022-10-17T17:04:21.031Z,7.43
2022-10-17T17:08:22.138Z,8.33
2022-10-17T17:12:23.445Z,7.30
2022-10-17T17:16:26.004Z,6.83
2022-10-17T17:20:26.985Z,7.70
2022-10-17T17:24:28.737Z,8.97
2022-10-17T17:28:30.820Z,6.57
2022-10-17T17:32:32.172Z,6.67
2022-10-17T17:36:36.396Z,7.20
2022-10-17T17:40:50.663Z,7.93
2022-10-17T17:44:52.249Z,7.00
2022-10-17T17:48:55.357Z,7.33
2022-10-17T17:52:56.877Z,7.67
2022-10-17T17:56:58.031Z,8.33
2022-10-17T18:00:59.658Z,10.37
2022-10-17T18:05:00.887Z,10.40
2022-10-17T18:09:02.149Z,9.67
2022-10-17T18:13:03.077Z,8.73
2022-10-17T18:17:04.350Z,9.73
2022-10-17T18:21:06.370Z,8.80
2022-10-17T18:25:08.557Z,9.47
2022-10-17T18:29:12.020Z,8.23
2022-10-17T18:33:13.570Z,9.27
2022-10-17T18:37:15.518Z,9.75
2022-10-17T18:41:19.169Z,7.00
2022-10-17T18:45:22.880Z,9.13
2022-10-17T18:49:25.350Z,8.87
2022-10-17T18:53:27.400Z,8.27
2022-10-17T18:57:29.368Z,9.27
2022-10-17T19:01:31.066Z,9.03
2022-10-17T19:05:34.196Z,8.10
2022-10-17T19:09:36.608Z,9.37
2022-10-17T19:13:38.692Z,10.63
2022-10-17T19:17:40.508Z,9.57
2022-10-17T19:21:42.861Z,9.43
2022-10-17T19:25:44.970Z,6.63
2022-10-17T19:29:47.602Z,6.87
2022-10-17T19:33:52.014Z,11.87
2022-10-17T19:37:55.567Z,11.43
2022-10-17T19:41:57.314Z,10.13
2022-10-17T19:46:01.370Z,10.30
2022-10-17T19:54:05.242Z,10.03
2022-10-17T19:58:08.944Z,9.03
2022-10-17T20:02:13.007Z,8.27
2022-10-17T20:06:15.177Z,8.83
2022-10-17T20:10:17.929Z,9.57
2022-10-17T20:14:19.182Z,8.87
2022-10-17T20:18:20.218Z,8.50
2022-10-17T20:22:21.251Z,9.77
2022-10-17T20:26:33.615Z,10.33
2022-10-17T20:30:27.543Z,8.57
2022-10-17T20:34:30.616Z,9.07
2022-10-17T20:38:31.687Z,8.93
2022-10-17T20:42:33.071Z,9.40
2022-10-17T20:46:37.805Z,8.60
2022-10-17T20:50:38.670Z,9.13
2022-10-17T20:54:40.922Z,8.80
2022-10-17T20:58:41.991Z,8.80
2022-10-17T21:02:43.253Z,9.50
2022-10-17T21:06:46.168Z,10.00
2022-10-17T21:10:47.631Z,10.67
2022-10-17T21:14:49.612Z,10.03
2022-10-17T21:18:50.756Z,11.27
2022-10-17T21:22:51.914Z,8.33
2022-10-17T21:26:54.907Z,7.90
2022-10-17T21:31:09.483Z,9.13
2022-10-17T21:35:10.441Z,9.90
2022-10-17T21:39:13.354Z,10.53
2022-10-17T21:43:14.323Z,8.70
2022-10-17T21:47:15.345Z,9.83
2022-10-17T21:51:18.319Z,9.43
2022-10-17T21:55:19.276Z,10.67
2022-10-17T21:59:20.294Z,10.43
2022-10-17T22:03:21.211Z,9.23
2022-10-17T22:07:22.176Z,9.57
2022-10-17T22:11:26.759Z,9.20
2022-10-17T22:15:29.328Z,9.13
2022-10-17T22:19:30.452Z,8.70
2022-10-17T22:23:31.758Z,9.17
2022-10-17T22:27:33.102Z,8.67
2022-10-17T22:31:35.885Z,9.93
2022-10-17T22:35:36.841Z,9.30
2022-10-17T22:39:38.204Z,8.00
2022-10-17T22:43:39.325Z,7.63
2022-10-17T22:47:40.532Z,8.90
2022-10-17T22:51:41.589Z,9.27
2022-10-17T22:55:42.709Z,9.20
2022-10-17T22:59:43.628Z,8.43
2022-10-17T23:03:45.221Z,8.60
2022-10-17T23:07:46.274Z,7.73
2022-10-17T23:11:47.135Z,8.50
2022-10-17T23:15:53.988Z,8.23
2022-10-17T23:19:57.637Z,7.67
2022-10-17T23:23:57.663Z,6.30
2022-10-17T23:27:58.583Z,7.20
2022-10-17T23:32:00.393Z,7.40
2022-10-17T23:36:05.399Z,6.90
2022-10-17T23:40:07.511Z,7.27
2022-10-17T23:44:09.976Z,7.03
2022-10-17T23:48:10.827Z,7.50
2022-10-17T23:52:11.857Z,8.07
2022-10-17T23:56:12.902Z,8.40
